sensor_id;sensor_type;location;lat;lon;timestamp;temperature;humidity
7317;DHT22;3699;51.462;6.696;2023-05-07T00:00:20;16.40;99.90
7317;DHT22;3699;51.462;6.696;2023-05-07T00:02:48;16.50;99.90
7317;DHT22;3699;51.462;6.696;2023-05-07T00:05:15;16.50;99.90
7317;DHT22;3699;51.462;6.696;2023-05-07T00:07:42;16.30;99.90
7317;DHT22;3699;51.462;6.696;2023-05-07T00:10:10;16.70;99.90
7317;DHT22;3699;51.462;6.696;2023-05-07T00:12:37;16.50;99.90
7317;DHT22;3699;51.462;6.696;2023-05-07T00:15:05;16.40;99.90
7317;DHT22;3699;51.462;6.696;2023-05-07T00:17:33;16.20;99.90
7317;DHT22;3699;51.462;6.696;2023-05-07T00:20:01;16.30;99.90
7317;DHT22;3699;51.462;6.696;2023-05-07T00:22:28;16.40;99.90
7317;DHT22;3699;51.462;6.696;2023-05-07T00:24:55;16.40;99.90
7317;DHT22;3699;51.462;6.696;2023-05-07T00:27:22;16.10;99.90
7317;DHT22;3699;51.462;6.696;2023-05-07T00:29:49;16.50;99.90
7317;DHT22;3699;51.462;6.696;2023-05-07T00:34:43;16.20;99.90
7317;DHT22;3699;51.462;6.696;2023-05-07T00:37:11;16.50;99.90
7317;DHT22;3699;51.462;6.696;2023-05-07T00:42:05;16.40;99.90
7317;DHT22;3699;51.462;6.696;2023-05-07T00:44:32;16.20;99.90
7317;DHT22;3699;51.462;6.696;2023-05-07T00:47:02;16.10;99.90
7317;DHT22;3699;51.462;6.696;2023-05-07T00:49:36;16.40;99.90
7317;DHT22;3699;51.462;6.696;2023-05-07T00:52:04;16.10;99.90
7317;DHT22;3699;51.462;6.696;2023-05-07T00:54:34;16.20;99.90
7317;DHT22;3699;51.462;6.696;2023-05-07T00:57:02;16.10;99.90
7317;DHT22;3699;51.462;6.696;2023-05-07T00:59:30;16.10;99.90
7317;DHT22;3699;51.462;6.696;2023-05-07T01:01:57;16.10;99.90
7317;DHT22;3699;51.462;6.696;2023-05-07T01:06:51;15.80;99.90
7317;DHT22;3699;51.462;6.696;2023-05-07T01:09:19;16.00;99.90
7317;DHT22;3699;51.462;6.696;2023-05-07T01:11:48;16.00;99.90
7317;DHT22;3699;51.462;6.696;2023-05-07T01:14:16;16.10;99.90
7317;DHT22;3699;51.462;6.696;2023-05-07T01:19:11;15.90;99.90
7317;DHT22;3699;51.462;6.696;2023-05-07T01:21:45;15.90;99.90
7317;DHT22;3699;51.462;6.696;2023-05-07T01:26:42;16.10;99.90
7317;DHT22;3699;51.462;6.696;2023-05-07T01:29:09;16.10;99.90
7317;DHT22;3699;51.462;6.696;2023-05-07T01:31:37;15.80;99.90
7317;DHT22;3699;51.462;6.696;2023-05-07T01:34:07;15.50;99.90
7317;DHT22;3699;51.462;6.696;2023-05-07T01:36:35;15.80;99.90
7317;DHT22;3699;51.462;6.696;2023-05-07T01:39:04;15.50;99.90
7317;DHT22;3699;51.462;6.696;2023-05-07T01:41:33;15.70;99.90
7317;DHT22;3699;51.462;6.696;2023-05-07T01:44:00;15.60;99.90
7317;DHT22;3699;51.462;6.696;2023-05-07T01:46:28;15.80;99.90
7317;DHT22;3699;51.462;6.696;2023-05-07T01:48:55;15.60;99.90
7317;DHT22;3699;51.462;6.696;2023-05-07T01:51:22;15.60;99.90
7317;DHT22;3699;51.462;6.696;2023-05-07T01:56:17;15.90;99.90
7317;DHT22;3699;51.462;6.696;2023-05-07T01:58:45;15.80;99.90
7317;DHT22;3699;51.462;6.696;2023-05-07T02:01:13;15.60;99.90
7317;DHT22;3699;51.462;6.696;2023-05-07T02:06:07;15.60;99.90
7317;DHT22;3699;51.462;6.696;2023-05-07T02:08:33;15.50;99.90
7317;DHT22;3699;51.462;6.696;2023-05-07T02:11:00;15.80;99.90
7317;DHT22;3699;51.462;6.696;2023-05-07T02:13:30;15.40;99.90
7317;DHT22;3699;51.462;6.696;2023-05-07T02:15:58;15.80;99.90
7317;DHT22;3699;51.462;6.696;2023-05-07T02:18:25;15.50;99.90
7317;DHT22;3699;51.462;6.696;2023-05-07T02:20:52;15.80;99.90
7317;DHT22;3699;51.462;6.696;2023-05-07T02:23:18;15.40;99.90
7317;DHT22;3699;51.462;6.696;2023-05-07T02:28:12;15.50;99.90
7317;DHT22;3699;51.462;6.696;2023-05-07T02:30:39;15.80;99.90
7317;DHT22;3699;51.462;6.696;2023-05-07T02:33:07;15.60;99.90
7317;DHT22;3699;51.462;6.696;2023-05-07T02:35:35;15.60;99.90
7317;DHT22;3699;51.462;6.696;2023-05-07T02:38:01;15.50;99.90
7317;DHT22;3699;51.462;6.696;2023-05-07T02:40:28;15.50;99.90
7317;DHT22;3699;51.462;6.696;2023-05-07T02:47:49;15.40;99.90
7317;DHT22;3699;51.462;6.696;2023-05-07T02:50:17;15.40;99.90
7317;DHT22;3699;51.462;6.696;2023-05-07T02:55:12;15.50;99.90
7317;DHT22;3699;51.462;6.696;2023-05-07T02:57:39;15.20;99.90
7317;DHT22;3699;51.462;6.696;2023-05-07T03:00:13;15.30;99.90
7317;DHT22;3699;51.462;6.696;2023-05-07T03:05:07;15.20;99.90
7317;DHT22;3699;51.462;6.696;2023-05-07T03:07:36;15.40;99.90
7317;DHT22;3699;51.462;6.696;2023-05-07T03:10:03;15.50;99.90
7317;DHT22;3699;51.462;6.696;2023-05-07T03:12:30;15.30;99.90
7317;DHT22;3699;51.462;6.696;2023-05-07T03:14:57;15.40;99.90
7317;DHT22;3699;51.462;6.696;2023-05-07T03:19:51;15.20;99.90
7317;DHT22;3699;51.462;6.696;2023-05-07T03:22:18;15.40;99.90
7317;DHT22;3699;51.462;6.696;2023-05-07T03:24:46;15.70;99.90
7317;DHT22;3699;51.462;6.696;2023-05-07T03:27:12;15.30;99.90
7317;DHT22;3699;51.462;6.696;2023-05-07T03:29:39;15.20;99.90
7317;DHT22;3699;51.462;6.696;2023-05-07T03:32:06;15.20;99.90
7317;DHT22;3699;51.462;6.696;2023-05-07T03:34:33;15.20;99.90
7317;DHT22;3699;51.462;6.696;2023-05-07T03:37:00;15.40;99.90
7317;DHT22;3699;51.462;6.696;2023-05-07T03:39:26;15.40;99.90
7317;DHT22;3699;51.462;6.696;2023-05-07T03:41:54;15.20;99.90
7317;DHT22;3699;51.462;6.696;2023-05-07T03:44:21;15.50;99.90
7317;DHT22;3699;51.462;6.696;2023-05-07T03:51:42;15.20;99.90
7317;DHT22;3699;51.462;6.696;2023-05-07T03:56:36;15.20;99.90
7317;DHT22;3699;51.462;6.696;2023-05-07T03:59:04;15.20;99.90
7317;DHT22;3699;51.462;6.696;2023-05-07T04:01:31;15.20;99.90
7317;DHT22;3699;51.462;6.696;2023-05-07T04:03:57;15.10;99.90
7317;DHT22;3699;51.462;6.696;2023-05-07T04:06:24;15.10;99.90
7317;DHT22;3699;51.462;6.696;2023-05-07T04:08:51;15.40;99.90
7317;DHT22;3699;51.462;6.696;2023-05-07T04:11:17;15.10;99.90
7317;DHT22;3699;51.462;6.696;2023-05-07T04:16:13;15.20;99.90
7317;DHT22;3699;51.462;6.696;2023-05-07T04:18:39;15.00;99.90
7317;DHT22;3699;51.462;6.696;2023-05-07T04:21:13;15.10;99.90
7317;DHT22;3699;51.462;6.696;2023-05-07T04:26:07;15.10;99.90
7317;DHT22;3699;51.462;6.696;2023-05-07T04:28:34;15.40;99.90
7317;DHT22;3699;51.462;6.696;2023-05-07T04:31:01;15.20;99.90
7317;DHT22;3699;51.462;6.696;2023-05-07T04:33:30;15.50;99.90
7317;DHT22;3699;51.462;6.696;2023-05-07T04:35:56;15.20;99.90
7317;DHT22;3699;51.462;6.696;2023-05-07T04:38:23;15.40;99.90
7317;DHT22;3699;51.462;6.696;2023-05-07T04:40:50;15.30;99.90
7317;DHT22;3699;51.462;6.696;2023-05-07T04:45:44;15.50;99.90
7317;DHT22;3699;51.462;6.696;2023-05-07T04:48:11;15.40;99.90
7317;DHT22;3699;51.462;6.696;2023-05-07T04:50:41;15.40;99.90
7317;DHT22;3699;51.462;6.696;2023-05-07T04:53:08;15.40;99.90
7317;DHT22;3699;51.462;6.696;2023-05-07T04:55:34;15.10;99.90
7317;DHT22;3699;51.462;6.696;2023-05-07T05:02:57;15.40;99.90
7317;DHT22;3699;51.462;6.696;2023-05-07T05:07:52;15.40;99.90
7317;DHT22;3699;51.462;6.696;2023-05-07T05:10:19;15.50;99.90
7317;DHT22;3699;51.462;6.696;2023-05-07T05:15:12;15.70;99.90
7317;DHT22;3699;51.462;6.696;2023-05-07T05:17:39;16.00;99.90
7317;DHT22;3699;51.462;6.696;2023-05-07T05:20:06;15.90;99.90
7317;DHT22;3699;51.462;6.696;2023-05-07T05:22:35;16.00;99.90
7317;DHT22;3699;51.462;6.696;2023-05-07T05:25:03;16.40;99.90
7317;DHT22;3699;51.462;6.696;2023-05-07T05:27:30;16.40;99.90
7317;DHT22;3699;51.462;6.696;2023-05-07T05:29:57;16.80;99.90
7317;DHT22;3699;51.462;6.696;2023-05-07T05:32:24;17.40;99.90
7317;DHT22;3699;51.462;6.696;2023-05-07T05:37:18;18.20;99.90
7317;DHT22;3699;51.462;6.696;2023-05-07T05:39:45;18.90;99.90
7317;DHT22;3699;51.462;6.696;2023-05-07T05:42:13;19.00;99.90
7317;DHT22;3699;51.462;6.696;2023-05-07T05:44:40;19.40;99.90
7317;DHT22;3699;51.462;6.696;2023-05-07T05:47:06;19.20;99.90
7317;DHT22;3699;51.462;6.696;2023-05-07T05:52:00;19.50;99.90
7317;DHT22;3699;51.462;6.696;2023-05-07T05:56:54;19.80;99.90
7317;DHT22;3699;51.462;6.696;2023-05-07T05:59:23;20.00;99.90
7317;DHT22;3699;51.462;6.696;2023-05-07T06:04:17;20.30;99.90
7317;DHT22;3699;51.462;6.696;2023-05-07T06:06:43;20.20;99.90
7317;DHT22;3699;51.462;6.696;2023-05-07T06:09:10;20.30;99.90
7317;DHT22;3699;51.462;6.696;2023-05-07T06:11:37;20.30;99.90
7317;DHT22;3699;51.462;6.696;2023-05-07T06:14:05;20.20;99.90
7317;DHT22;3699;51.462;6.696;2023-05-07T06:16:33;20.20;99.90
7317;DHT22;3699;51.462;6.696;2023-05-07T06:18:59;20.00;99.90
7317;DHT22;3699;51.462;6.696;2023-05-07T06:26:20;19.50;99.90
7317;DHT22;3699;51.462;6.696;2023-05-07T06:28:47;19.40;99.90
7317;DHT22;3699;51.462;6.696;2023-05-07T06:31:14;19.40;99.90
7317;DHT22;3699;51.462;6.696;2023-05-07T06:33:43;19.40;99.90
7317;DHT22;3699;51.462;6.696;2023-05-07T06:36:10;18.80;99.90
7317;DHT22;3699;51.462;6.696;2023-05-07T06:41:06;18.80;99.90
7317;DHT22;3699;51.462;6.696;2023-05-07T06:43:33;18.80;99.90
7317;DHT22;3699;51.462;6.696;2023-05-07T06:48:27;18.60;99.90
7317;DHT22;3699;51.462;6.696;2023-05-07T06:50:55;18.70;99.90
7317;DHT22;3699;51.462;6.696;2023-05-07T06:55:50;18.80;99.90
7317;DHT22;3699;51.462;6.696;2023-05-07T06:58:17;18.90;99.90
7317;DHT22;3699;51.462;6.696;2023-05-07T07:03:11;18.80;99.90
7317;DHT22;3699;51.462;6.696;2023-05-07T07:05:38;18.80;99.90
7317;DHT22;3699;51.462;6.696;2023-05-07T07:08:06;18.70;99.90
7317;DHT22;3699;51.462;6.696;2023-05-07T07:10:33;18.80;99.90
7317;DHT22;3699;51.462;6.696;2023-05-07T07:15:26;19.00;99.90
7317;DHT22;3699;51.462;6.696;2023-05-07T07:17:53;18.80;99.90
7317;DHT22;3699;51.462;6.696;2023-05-07T07:22:47;19.20;99.90
7317;DHT22;3699;51.462;6.696;2023-05-07T07:25:15;19.10;99.90
7317;DHT22;3699;51.462;6.696;2023-05-07T07:30:09;19.60;99.90
7317;DHT22;3699;51.462;6.696;2023-05-07T07:35:03;20.30;99.90
7317;DHT22;3699;51.462;6.696;2023-05-07T07:37:30;20.70;99.90
7317;DHT22;3699;51.462;6.696;2023-05-07T07:39:58;20.80;99.90
7317;DHT22;3699;51.462;6.696;2023-05-07T07:42:26;20.70;99.90
7317;DHT22;3699;51.462;6.696;2023-05-07T07:44:54;20.80;99.90
7317;DHT22;3699;51.462;6.696;2023-05-07T07:47:22;20.90;99.90
7317;DHT22;3699;51.462;6.696;2023-05-07T07:52:16;20.90;99.90
7317;DHT22;3699;51.462;6.696;2023-05-07T07:54:43;21.40;99.90
7317;DHT22;3699;51.462;6.696;2023-05-07T07:57:11;21.70;99.90
7317;DHT22;3699;51.462;6.696;2023-05-07T07:59:39;22.30;99.90
7317;DHT22;3699;51.462;6.696;2023-05-07T08:02:07;22.40;99.90
7317;DHT22;3699;51.462;6.696;2023-05-07T08:04:34;22.80;99.90
7317;DHT22;3699;51.462;6.696;2023-05-07T08:07:02;22.90;99.90
7317;DHT22;3699;51.462;6.696;2023-05-07T08:09:29;23.10;99.90
7317;DHT22;3699;51.462;6.696;2023-05-07T08:11:56;26.10;99.90
7317;DHT22;3699;51.462;6.696;2023-05-07T08:14:22;23.20;97.00
7317;DHT22;3699;51.462;6.696;2023-05-07T08:16:50;22.90;98.70
7317;DHT22;3699;51.462;6.696;2023-05-07T08:24:13;22.40;99.90
7317;DHT22;3699;51.462;6.696;2023-05-07T08:26:40;22.10;99.90
7317;DHT22;3699;51.462;6.696;2023-05-07T08:29:06;22.00;99.90
7317;DHT22;3699;51.462;6.696;2023-05-07T08:34:02;21.60;99.90
7317;DHT22;3699;51.462;6.696;2023-05-07T08:36:30;21.50;99.90
7317;DHT22;3699;51.462;6.696;2023-05-07T08:38:56;21.50;99.90
7317;DHT22;3699;51.462;6.696;2023-05-07T08:41:23;21.80;99.90
7317;DHT22;3699;51.462;6.696;2023-05-07T08:43:50;21.50;99.90
7317;DHT22;3699;51.462;6.696;2023-05-07T08:46:18;21.80;99.90
7317;DHT22;3699;51.462;6.696;2023-05-07T08:48:48;22.20;99.90
7317;DHT22;3699;51.462;6.696;2023-05-07T08:51:17;22.40;99.90
7317;DHT22;3699;51.462;6.696;2023-05-07T08:53:46;22.60;99.90
7317;DHT22;3699;51.462;6.696;2023-05-07T08:56:14;22.80;99.90
7317;DHT22;3699;51.462;6.696;2023-05-07T08:58:42;23.00;99.90
7317;DHT22;3699;51.462;6.696;2023-05-07T09:01:12;23.30;99.90
7317;DHT22;3699;51.462;6.696;2023-05-07T09:03:40;23.60;99.60
7317;DHT22;3699;51.462;6.696;2023-05-07T09:06:06;23.80;99.00
7317;DHT22;3699;51.462;6.696;2023-05-07T09:08:35;24.00;96.60
7317;DHT22;3699;51.462;6.696;2023-05-07T09:11:02;24.50;92.90
7317;DHT22;3699;51.462;6.696;2023-05-07T09:15:57;24.70;81.50
7317;DHT22;3699;51.462;6.696;2023-05-07T09:18:24;24.80;85.50
7317;DHT22;3699;51.462;6.696;2023-05-07T09:23:18;25.20;83.00
7317;DHT22;3699;51.462;6.696;2023-05-07T09:25:48;25.10;81.00
7317;DHT22;3699;51.462;6.696;2023-05-07T09:28:14;25.30;75.00
7317;DHT22;3699;51.462;6.696;2023-05-07T09:30:41;25.60;70.90
7317;DHT22;3699;51.462;6.696;2023-05-07T09:33:08;25.50;71.20
7317;DHT22;3699;51.462;6.696;2023-05-07T09:38:02;25.70;76.00
7317;DHT22;3699;51.462;6.696;2023-05-07T09:40:29;25.70;65.40
7317;DHT22;3699;51.462;6.696;2023-05-07T09:43:09;25.60;67.00
7317;DHT22;3699;51.462;6.696;2023-05-07T09:48:05;25.30;66.80
7317;DHT22;3699;51.462;6.696;2023-05-07T09:50:36;25.10;70.30
7317;DHT22;3699;51.462;6.696;2023-05-07T09:53:03;25.20;69.70
7317;DHT22;3699;51.462;6.696;2023-05-07T09:55:30;25.20;66.60
7317;DHT22;3699;51.462;6.696;2023-05-07T09:57:59;25.20;71.30
7317;DHT22;3699;51.462;6.696;2023-05-07T10:00:29;25.30;69.60
7317;DHT22;3699;51.462;6.696;2023-05-07T10:02:57;25.60;63.30
7317;DHT22;3699;51.462;6.696;2023-05-07T10:05:25;25.60;62.70
7317;DHT22;3699;51.462;6.696;2023-05-07T10:07:53;25.70;56.00
7317;DHT22;3699;51.462;6.696;2023-05-07T10:10:21;25.70;52.50
7317;DHT22;3699;51.462;6.696;2023-05-07T10:12:48;25.70;54.10
7317;DHT22;3699;51.462;6.696;2023-05-07T10:15:17;25.70;64.40
7317;DHT22;3699;51.462;6.696;2023-05-07T10:17:45;26.10;59.60
7317;DHT22;3699;51.462;6.696;2023-05-07T10:20:12;26.00;57.70
7317;DHT22;3699;51.462;6.696;2023-05-07T10:22:41;25.90;57.30
7317;DHT22;3699;51.462;6.696;2023-05-07T10:25:14;25.90;56.70
7317;DHT22;3699;51.462;6.696;2023-05-07T10:27:42;25.60;58.80
7317;DHT22;3699;51.462;6.696;2023-05-07T10:30:19;25.70;60.20
7317;DHT22;3699;51.462;6.696;2023-05-07T10:32:49;25.60;60.00
7317;DHT22;3699;51.462;6.696;2023-05-07T10:35:19;25.60;59.60
7317;DHT22;3699;51.462;6.696;2023-05-07T10:40:14;25.60;55.60
7317;DHT22;3699;51.462;6.696;2023-05-07T10:42:54;25.70;59.10
7317;DHT22;3699;51.462;6.696;2023-05-07T10:45:23;25.70;57.20
7317;DHT22;3699;51.462;6.696;2023-05-07T10:48:08;25.60;60.60
7317;DHT22;3699;51.462;6.696;2023-05-07T10:50:35;25.70;56.10
7317;DHT22;3699;51.462;6.696;2023-05-07T10:53:21;25.70;61.30
7317;DHT22;3699;51.462;6.696;2023-05-07T10:56:26;25.90;59.80
7317;DHT22;3699;51.462;6.696;2023-05-07T10:59:07;26.00;56.60
7317;DHT22;3699;51.462;6.696;2023-05-07T11:01:59;25.80;53.60
7317;DHT22;3699;51.462;6.696;2023-05-07T11:04:28;25.60;55.50
7317;DHT22;3699;51.462;6.696;2023-05-07T11:07:25;25.60;59.30
7317;DHT22;3699;51.462;6.696;2023-05-07T11:09:57;25.90;57.70
7317;DHT22;3699;51.462;6.696;2023-05-07T11:12:52;25.70;57.80
7317;DHT22;3699;51.462;6.696;2023-05-07T11:15:39;25.70;58.50
7317;DHT22;3699;51.462;6.696;2023-05-07T11:18:09;25.70;57.50
7317;DHT22;3699;51.462;6.696;2023-05-07T11:20:50;25.60;58.00
7317;DHT22;3699;51.462;6.696;2023-05-07T11:23:55;25.50;59.60
7317;DHT22;3699;51.462;6.696;2023-05-07T11:26:22;25.50;55.90
7317;DHT22;3699;51.462;6.696;2023-05-07T11:28:51;25.50;57.50
7317;DHT22;3699;51.462;6.696;2023-05-07T11:31:21;25.50;56.50
7317;DHT22;3699;51.462;6.696;2023-05-07T11:33:51;25.70;55.90
7317;DHT22;3699;51.462;6.696;2023-05-07T11:36:18;25.60;55.90
7317;DHT22;3699;51.462;6.696;2023-05-07T11:38:46;25.50;53.70
7317;DHT22;3699;51.462;6.696;2023-05-07T11:43:54;25.50;54.50
7317;DHT22;3699;51.462;6.696;2023-05-07T11:48:50;25.30;53.70
7317;DHT22;3699;51.462;6.696;2023-05-07T11:51:19;25.30;54.40
7317;DHT22;3699;51.462;6.696;2023-05-07T11:53:46;25.10;54.90
7317;DHT22;3699;51.462;6.696;2023-05-07T11:56:14;25.20;56.50
7317;DHT22;3699;51.462;6.696;2023-05-07T11:58:42;25.30;60.30
7317;DHT22;3699;51.462;6.696;2023-05-07T12:01:10;25.40;56.50
7317;DHT22;3699;51.462;6.696;2023-05-07T12:03:39;25.40;54.80
7317;DHT22;3699;51.462;6.696;2023-05-07T12:06:09;25.60;56.40
7317;DHT22;3699;51.462;6.696;2023-05-07T12:08:37;25.40;51.70
7317;DHT22;3699;51.462;6.696;2023-05-07T12:11:07;25.30;51.30
7317;DHT22;3699;51.462;6.696;2023-05-07T12:20:57;24.90;56.80
7317;DHT22;3699;51.462;6.696;2023-05-07T12:23:25;24.90;60.50
7317;DHT22;3699;51.462;6.696;2023-05-07T12:25:52;24.80;57.80
7317;DHT22;3699;51.462;6.696;2023-05-07T12:28:19;24.80;59.00
7317;DHT22;3699;51.462;6.696;2023-05-07T12:30:47;24.80;59.30
7317;DHT22;3699;51.462;6.696;2023-05-07T12:33:16;24.60;58.80
7317;DHT22;3699;51.462;6.696;2023-05-07T12:35:44;24.50;59.70
7317;DHT22;3699;51.462;6.696;2023-05-07T12:38:13;24.40;61.50
7317;DHT22;3699;51.462;6.696;2023-05-07T12:40:43;24.50;57.40
7317;DHT22;3699;51.462;6.696;2023-05-07T12:43:15;24.40;59.20
7317;DHT22;3699;51.462;6.696;2023-05-07T12:45:43;24.30;61.30
7317;DHT22;3699;51.462;6.696;2023-05-07T12:48:10;24.30;62.80
7317;DHT22;3699;51.462;6.696;2023-05-07T12:53:05;24.20;63.20
7317;DHT22;3699;51.462;6.696;2023-05-07T12:55:42;24.30;59.60
7317;DHT22;3699;51.462;6.696;2023-05-07T12:58:14;24.20;57.50
7317;DHT22;3699;51.462;6.696;2023-05-07T13:00:42;24.30;61.10
7317;DHT22;3699;51.462;6.696;2023-05-07T13:03:09;24.30;63.10
7317;DHT22;3699;51.462;6.696;2023-05-07T13:08:03;24.10;69.30
7317;DHT22;3699;51.462;6.696;2023-05-07T13:10:31;24.10;65.10
7317;DHT22;3699;51.462;6.696;2023-05-07T13:12:59;24.20;65.40
7317;DHT22;3699;51.462;6.696;2023-05-07T13:15:26;24.10;69.70
7317;DHT22;3699;51.462;6.696;2023-05-07T13:17:52;24.00;69.90
7317;DHT22;3699;51.462;6.696;2023-05-07T13:20:19;24.00;69.10
7317;DHT22;3699;51.462;6.696;2023-05-07T13:22:46;23.90;71.80
7317;DHT22;3699;51.462;6.696;2023-05-07T13:25:12;23.70;75.60
7317;DHT22;3699;51.462;6.696;2023-05-07T13:27:39;23.70;82.30
7317;DHT22;3699;51.462;6.696;2023-05-07T13:30:08;23.60;86.30
7317;DHT22;3699;51.462;6.696;2023-05-07T13:32:34;23.60;91.60
7317;DHT22;3699;51.462;6.696;2023-05-07T13:35:01;23.50;93.60
7317;DHT22;3699;51.462;6.696;2023-05-07T13:39:55;23.00;99.90
7317;DHT22;3699;51.462;6.696;2023-05-07T13:42:22;23.00;99.90
7317;DHT22;3699;51.462;6.696;2023-05-07T13:44:49;22.70;99.90
7317;DHT22;3699;51.462;6.696;2023-05-07T13:47:17;22.80;99.90
7317;DHT22;3699;51.462;6.696;2023-05-07T13:49:44;22.80;99.90
7317;DHT22;3699;51.462;6.696;2023-05-07T13:52:10;22.40;99.90
7317;DHT22;3699;51.462;6.696;2023-05-07T14:01:59;22.20;99.90
7317;DHT22;3699;51.462;6.696;2023-05-07T14:04:27;22.40;99.90
7317;DHT22;3699;51.462;6.696;2023-05-07T14:09:21;22.30;99.90
7317;DHT22;3699;51.462;6.696;2023-05-07T14:11:47;22.00;99.90
7317;DHT22;3699;51.462;6.696;2023-05-07T14:14:16;21.90;99.90
7317;DHT22;3699;51.462;6.696;2023-05-07T14:16:43;21.70;99.90
7317;DHT22;3699;51.462;6.696;2023-05-07T14:21:38;21.70;99.90
7317;DHT22;3699;51.462;6.696;2023-05-07T14:24:07;21.70;99.90
7317;DHT22;3699;51.462;6.696;2023-05-07T14:26:34;21.70;99.90
7317;DHT22;3699;51.462;6.696;2023-05-07T14:29:01;21.80;99.90
7317;DHT22;3699;51.462;6.696;2023-05-07T14:31:28;21.60;99.90
7317;DHT22;3699;51.462;6.696;2023-05-07T14:33:55;21.60;99.90
7317;DHT22;3699;51.462;6.696;2023-05-07T14:38:53;21.50;99.90
7317;DHT22;3699;51.462;6.696;2023-05-07T14:43:47;21.40;99.90
7317;DHT22;3699;51.462;6.696;2023-05-07T14:46:16;21.40;99.90
7317;DHT22;3699;51.462;6.696;2023-05-07T14:51:11;21.10;99.90
7317;DHT22;3699;51.462;6.696;2023-05-07T14:53:37;21.00;99.90
7317;DHT22;3699;51.462;6.696;2023-05-07T14:56:06;20.80;99.90
7317;DHT22;3699;51.462;6.696;2023-05-07T14:58:33;20.60;99.90
7317;DHT22;3699;51.462;6.696;2023-05-07T15:01:00;20.50;99.90
7317;DHT22;3699;51.462;6.696;2023-05-07T15:03:27;20.30;99.90
7317;DHT22;3699;51.462;6.696;2023-05-07T15:05:54;20.20;99.90
7317;DHT22;3699;51.462;6.696;2023-05-07T15:08:21;20.00;99.90
7317;DHT22;3699;51.462;6.696;2023-05-07T15:10:48;20.00;99.90
7317;DHT22;3699;51.462;6.696;2023-05-07T15:13:16;19.90;99.90
7317;DHT22;3699;51.462;6.696;2023-05-07T15:15:44;20.00;99.90
7317;DHT22;3699;51.462;6.696;2023-05-07T15:20:38;20.10;99.90
7317;DHT22;3699;51.462;6.696;2023-05-07T15:23:06;20.00;99.90
7317;DHT22;3699;51.462;6.696;2023-05-07T15:25:35;20.20;99.90
7317;DHT22;3699;51.462;6.696;2023-05-07T15:28:02;20.20;99.90
7317;DHT22;3699;51.462;6.696;2023-05-07T15:30:30;20.40;99.90
7317;DHT22;3699;51.462;6.696;2023-05-07T15:32:57;20.20;99.90
7317;DHT22;3699;51.462;6.696;2023-05-07T15:37:51;20.20;99.90
7317;DHT22;3699;51.462;6.696;2023-05-07T15:40:18;20.50;99.90
7317;DHT22;3699;51.462;6.696;2023-05-07T15:42:45;20.30;99.90
7317;DHT22;3699;51.462;6.696;2023-05-07T15:45:12;20.50;99.90
7317;DHT22;3699;51.462;6.696;2023-05-07T15:47:40;20.70;99.90
7317;DHT22;3699;51.462;6.696;2023-05-07T15:50:07;20.70;99.90
7317;DHT22;3699;51.462;6.696;2023-05-07T15:52:34;20.80;99.90
7317;DHT22;3699;51.462;6.696;2023-05-07T15:57:28;20.80;99.90
7317;DHT22;3699;51.462;6.696;2023-05-07T15:59:56;20.70;99.90
7317;DHT22;3699;51.462;6.696;2023-05-07T16:02:23;20.80;99.90
7317;DHT22;3699;51.462;6.696;2023-05-07T16:04:51;20.80;99.90
7317;DHT22;3699;51.462;6.696;2023-05-07T16:07:18;20.90;99.90
7317;DHT22;3699;51.462;6.696;2023-05-07T16:09:45;20.90;99.90
7317;DHT22;3699;51.462;6.696;2023-05-07T16:12:12;20.90;99.90
7317;DHT22;3699;51.462;6.696;2023-05-07T16:14:38;21.00;99.90
7317;DHT22;3699;51.462;6.696;2023-05-07T16:17:05;20.90;99.90
7317;DHT22;3699;51.462;6.696;2023-05-07T16:19:32;21.00;99.90
7317;DHT22;3699;51.462;6.696;2023-05-07T16:22:00;21.00;99.90
7317;DHT22;3699;51.462;6.696;2023-05-07T16:24:27;20.90;99.90
7317;DHT22;3699;51.462;6.696;2023-05-07T16:26:53;21.10;99.90
7317;DHT22;3699;51.462;6.696;2023-05-07T16:29:20;21.10;99.90
7317;DHT22;3699;51.462;6.696;2023-05-07T16:31:47;21.20;99.90
7317;DHT22;3699;51.462;6.696;2023-05-07T16:36:41;21.20;99.90
7317;DHT22;3699;51.462;6.696;2023-05-07T16:39:09;21.30;99.90
7317;DHT22;3699;51.462;6.696;2023-05-07T16:46:30;21.40;99.90
7317;DHT22;3699;51.462;6.696;2023-05-07T16:51:24;21.30;99.90
7317;DHT22;3699;51.462;6.696;2023-05-07T16:56:20;21.30;99.90
7317;DHT22;3699;51.462;6.696;2023-05-07T16:58:47;21.20;99.90
7317;DHT22;3699;51.462;6.696;2023-05-07T17:01:14;21.20;99.90
7317;DHT22;3699;51.462;6.696;2023-05-07T17:03:43;21.10;99.90
7317;DHT22;3699;51.462;6.696;2023-05-07T17:06:10;21.10;99.90
7317;DHT22;3699;51.462;6.696;2023-05-07T17:11:06;21.10;99.90
7317;DHT22;3699;51.462;6.696;2023-05-07T17:13:34;21.30;99.90
7317;DHT22;3699;51.462;6.696;2023-05-07T17:18:28;21.00;99.90
7317;DHT22;3699;51.462;6.696;2023-05-07T17:23:22;20.90;99.90
7317;DHT22;3699;51.462;6.696;2023-05-07T17:25:48;20.80;99.90
7317;DHT22;3699;51.462;6.696;2023-05-07T17:28:15;20.70;99.90
7317;DHT22;3699;51.462;6.696;2023-05-07T17:30:43;20.80;99.90
7317;DHT22;3699;51.462;6.696;2023-05-07T17:33:11;20.70;99.90
7317;DHT22;3699;51.462;6.696;2023-05-07T17:38:04;20.70;99.90
7317;DHT22;3699;51.462;6.696;2023-05-07T17:42:59;20.40;99.90
7317;DHT22;3699;51.462;6.696;2023-05-07T17:45:26;20.40;99.90
7317;DHT22;3699;51.462;6.696;2023-05-07T17:47:54;20.40;99.90
7317;DHT22;3699;51.462;6.696;2023-05-07T17:50:20;20.30;99.90
7317;DHT22;3699;51.462;6.696;2023-05-07T17:52:47;20.20;99.90
7317;DHT22;3699;51.462;6.696;2023-05-07T17:57:42;20.00;99.90
7317;DHT22;3699;51.462;6.696;2023-05-07T18:00:09;19.80;99.90
7317;DHT22;3699;51.462;6.696;2023-05-07T18:05:06;19.60;99.90
7317;DHT22;3699;51.462;6.696;2023-05-07T18:07:33;19.50;99.90
7317;DHT22;3699;51.462;6.696;2023-05-07T18:10:00;19.40;99.90
7317;DHT22;3699;51.462;6.696;2023-05-07T18:14:54;19.10;99.90
7317;DHT22;3699;51.462;6.696;2023-05-07T18:19:50;19.20;99.90
7317;DHT22;3699;51.462;6.696;2023-05-07T18:22:19;19.10;99.90
7317;DHT22;3699;51.462;6.696;2023-05-07T18:24:45;19.00;99.90
7317;DHT22;3699;51.462;6.696;2023-05-07T18:27:13;19.00;99.90
7317;DHT22;3699;51.462;6.696;2023-05-07T18:32:07;18.90;99.90
7317;DHT22;3699;51.462;6.696;2023-05-07T18:37:00;18.70;99.90
7317;DHT22;3699;51.462;6.696;2023-05-07T18:39:29;18.70;99.90
7317;DHT22;3699;51.462;6.696;2023-05-07T18:41:56;18.40;99.90
7317;DHT22;3699;51.462;6.696;2023-05-07T18:44:23;18.50;99.90
7317;DHT22;3699;51.462;6.696;2023-05-07T18:46:50;18.40;99.90
7317;DHT22;3699;51.462;6.696;2023-05-07T18:51:44;18.30;99.90
7317;DHT22;3699;51.462;6.696;2023-05-07T18:54:10;18.30;99.90
7317;DHT22;3699;51.462;6.696;2023-05-07T18:56:39;18.40;99.90
7317;DHT22;3699;51.462;6.696;2023-05-07T18:59:06;18.20;99.90
7317;DHT22;3699;51.462;6.696;2023-05-07T19:01:33;18.00;99.90
7317;DHT22;3699;51.462;6.696;2023-05-07T19:06:27;18.00;99.90
7317;DHT22;3699;51.462;6.696;2023-05-07T19:11:22;17.80;99.90
7317;DHT22;3699;51.462;6.696;2023-05-07T19:13:50;17.90;99.90
7317;DHT22;3699;51.462;6.696;2023-05-07T19:16:17;17.90;99.90
7317;DHT22;3699;51.462;6.696;2023-05-07T19:18:43;17.80;99.90
7317;DHT22;3699;51.462;6.696;2023-05-07T19:21:10;17.80;99.90
7317;DHT22;3699;51.462;6.696;2023-05-07T19:26:07;17.70;99.90
7317;DHT22;3699;51.462;6.696;2023-05-07T19:28:34;17.70;99.90
7317;DHT22;3699;51.462;6.696;2023-05-07T19:31:02;17.50;99.90
7317;DHT22;3699;51.462;6.696;2023-05-07T19:33:29;17.70;99.90
7317;DHT22;3699;51.462;6.696;2023-05-07T19:38:24;17.40;99.90